createdAt,value
2023-06-19T00:00:14.243Z,60.84
2023-06-19T00:01:09.394Z,60.89
2023-06-19T00:02:04.604Z,60.84
2023-06-19T00:02:59.904Z,61.06
2023-06-19T00:03:55.062Z,61.54
2023-06-19T00:04:50.268Z,61.60
2023-06-19T00:05:45.429Z,61.71
2023-06-19T00:06:40.666Z,61.82
2023-06-19T00:07:35.756Z,61.89
2023-06-19T00:08:30.824Z,61.89
2023-06-19T00:09:25.845Z,61.83
2023-06-19T00:10:21.188Z,61.90
2023-06-19T00:11:16.018Z,62.04
2023-06-19T00:12:11.183Z,61.79
2023-06-19T00:13:06.419Z,61.84
2023-06-19T00:14:01.409Z,61.56
2023-06-19T00:14:56.420Z,61.53
2023-06-19T00:15:51.583Z,61.45
2023-06-19T00:16:46.677Z,61.37
2023-06-19T00:17:41.615Z,61.12
2023-06-19T00:18:36.643Z,60.99
2023-06-19T00:19:31.739Z,60.99
2023-06-19T00:20:26.976Z,60.95
2023-06-19T00:21:21.909Z,61.05
2023-06-19T00:22:16.965Z,61.09
2023-06-19T00:23:12.216Z,61.38
2023-06-19T00:24:07.155Z,61.36
2023-06-19T00:25:02.206Z,61.11
2023-06-19T00:25:57.251Z,60.97
2023-06-19T00:26:52.292Z,61.12
2023-06-19T00:27:47.366Z,61.28
2023-06-19T00:28:42.497Z,61.60
2023-06-19T00:29:37.495Z,61.63
2023-06-19T00:30:32.560Z,61.61
2023-06-19T00:31:27.706Z,61.35
2023-06-19T00:32:22.947Z,61.42
2023-06-19T00:33:18.903Z,61.33
2023-06-19T00:34:13.805Z,61.11
2023-06-19T00:35:09.000Z,60.98
2023-06-19T00:36:05.191Z,60.75
2023-06-19T00:37:00.429Z,60.63
2023-06-19T00:37:56.340Z,60.38
2023-06-19T00:38:51.371Z,60.12
2023-06-19T00:39:46.591Z,59.77
2023-06-19T00:40:42.242Z,59.56
2023-06-19T00:41:37.462Z,59.79
2023-06-19T00:42:33.914Z,60.20
2023-06-19T00:43:28.523Z,60.79
2023-06-19T00:44:23.683Z,61.25
2023-06-19T00:45:19.937Z,61.53
2023-06-19T00:46:15.188Z,61.55
2023-06-19T00:47:10.246Z,61.68
2023-06-19T00:48:06.781Z,61.78
2023-06-19T00:49:01.841Z,61.85
2023-06-19T00:49:57.602Z,61.88
2023-06-19T00:50:52.769Z,61.83
2023-06-19T00:51:47.996Z,61.85
2023-06-19T00:52:43.734Z,61.74
2023-06-19T00:53:39.174Z,61.71
2023-06-19T00:54:34.751Z,61.36
2023-06-19T00:55:29.959Z,61.06
2023-06-19T00:56:25.183Z,61.08
2023-06-19T00:57:21.059Z,61.27
2023-06-19T00:58:16.466Z,61.39
2023-06-19T00:59:11.635Z,61.47
2023-06-19T01:00:07.987Z,61.69
2023-06-19T01:01:09.364Z,61.82
2023-06-19T01:02:00.110Z,61.86
2023-06-19T01:02:54.277Z,61.81
2023-06-19T01:03:49.768Z,61.76
2023-06-19T01:04:45.334Z,61.53
2023-06-19T01:05:40.507Z,61.22
2023-06-19T01:06:36.413Z,60.98
2023-06-19T01:07:31.455Z,60.72
2023-06-19T01:08:26.965Z,60.59
2023-06-19T01:09:22.587Z,60.69
2023-06-19T01:10:17.791Z,60.98
2023-06-19T01:12:10.243Z,61.13
2023-06-19T01:13:04.489Z,61.02
2023-06-19T01:14:00.177Z,61.11
2023-06-19T01:14:55.288Z,60.94
2023-06-19T01:15:50.719Z,60.85
2023-06-19T01:16:46.428Z,60.79
2023-06-19T01:17:41.528Z,60.68
2023-06-19T01:18:37.321Z,60.51
2023-06-19T01:19:32.522Z,60.24
2023-06-19T01:20:27.825Z,60.03
2023-06-19T01:21:23.609Z,59.92
2023-06-19T01:22:18.787Z,59.85
2023-06-19T01:23:14.162Z,59.87
2023-06-19T01:24:10.214Z,59.90
2023-06-19T01:25:05.441Z,59.81
2023-06-19T01:26:01.175Z,59.74
2023-06-19T01:26:56.376Z,59.76
2023-06-19T01:27:51.438Z,59.82
2023-06-19T01:28:47.522Z,59.78
2023-06-19T01:31:05.938Z,60.77
2023-06-19T01:32:01.022Z,60.95
2023-06-19T01:32:56.273Z,60.64
2023-06-19T01:33:51.492Z,60.62
2023-06-19T01:34:46.586Z,60.58
2023-06-19T01:35:41.617Z,60.44
2023-06-19T01:36:36.811Z,60.49
2023-06-19T01:37:32.103Z,60.47
2023-06-19T01:38:27.104Z,60.57
2023-06-19T01:39:22.477Z,60.61
2023-06-19T01:40:17.466Z,60.66
2023-06-19T01:41:12.765Z,60.85
2023-06-19T01:42:07.783Z,60.97
2023-06-19T01:43:02.960Z,61.11
2023-06-19T01:43:58.309Z,61.08
2023-06-19T01:44:53.335Z,61.32
2023-06-19T01:45:48.492Z,61.41
2023-06-19T01:46:43.741Z,61.57
2023-06-19T01:47:38.915Z,61.48
2023-06-19T01:48:34.092Z,61.70
2023-06-19T01:49:29.388Z,61.57
2023-06-19T01:50:24.742Z,61.55
2023-06-19T01:51:19.622Z,61.47
2023-06-19T01:52:14.680Z,61.53
2023-06-19T01:53:09.833Z,61.57
2023-06-19T01:54:05.212Z,61.68
2023-06-19T01:55:00.145Z,61.68
2023-06-19T01:55:55.296Z,61.64
2023-06-19T01:56:50.464Z,61.63
2023-06-19T01:57:45.648Z,61.49
2023-06-19T01:58:40.982Z,61.29
2023-06-19T01:59:36.035Z,61.21
2023-06-19T02:00:31.155Z,61.10
2023-06-19T02:01:26.472Z,61.10
2023-06-19T02:02:21.516Z,61.08
2023-06-19T02:03:16.758Z,61.55
2023-06-19T02:04:12.009Z,61.76
2023-06-19T02:05:07.034Z,61.83
2023-06-19T02:06:02.176Z,61.81
2023-06-19T02:06:57.373Z,61.69
2023-06-19T02:07:52.514Z,61.73
2023-06-19T02:08:47.700Z,61.75
2023-06-19T02:09:42.911Z,61.72
2023-06-19T02:10:38.074Z,61.68
2023-06-19T02:11:33.372Z,61.65
2023-06-19T02:12:28.433Z,61.57
2023-06-19T02:13:23.623Z,61.41
2023-06-19T02:14:18.796Z,61.32
2023-06-19T02:15:14.113Z,61.35
2023-06-19T02:16:09.235Z,61.36
2023-06-19T02:17:04.287Z,61.38
2023-06-19T02:17:59.521Z,61.44
2023-06-19T02:18:54.635Z,61.50
2023-06-19T02:19:49.871Z,61.44
2023-06-19T02:20:45.033Z,61.31
2023-06-19T02:21:40.334Z,61.39
2023-06-19T02:22:35.355Z,61.67
2023-06-19T02:23:30.542Z,61.83
2023-06-19T02:24:25.918Z,61.87
2023-06-19T02:25:20.955Z,61.96
2023-06-19T02:26:16.084Z,61.89
2023-06-19T02:27:11.269Z,61.93
2023-06-19T02:28:06.412Z,61.99
2023-06-19T02:29:01.584Z,62.00
2023-06-19T02:29:56.798Z,62.06
2023-06-19T02:30:51.951Z,62.15
2023-06-19T02:31:47.254Z,62.24
2023-06-19T02:32:42.486Z,62.14
2023-06-19T02:33:37.503Z,62.19
2023-06-19T02:34:32.695Z,62.24
2023-06-19T02:35:28.011Z,62.08
2023-06-19T02:36:23.052Z,61.81
2023-06-19T02:37:18.244Z,61.62
2023-06-19T02:38:13.419Z,61.54
2023-06-19T02:39:08.551Z,61.27
2023-06-19T02:40:03.764Z,61.16
2023-06-19T02:40:59.024Z,61.15
2023-06-19T02:41:54.282Z,60.95
2023-06-19T02:42:49.306Z,60.86
2023-06-19T02:43:44.472Z,60.76
2023-06-19T02:44:39.827Z,60.57
2023-06-19T02:45:34.938Z,60.56
2023-06-19T02:46:30.074Z,60.48
2023-06-19T02:47:25.275Z,60.33
2023-06-19T02:48:20.415Z,59.87
2023-06-19T02:49:15.612Z,59.83
2023-06-19T02:50:10.781Z,59.75
2023-06-19T02:51:05.977Z,59.80
2023-06-19T02:52:01.231Z,59.77
2023-06-19T02:52:56.299Z,59.71
2023-06-19T02:53:51.434Z,59.63
2023-06-19T02:54:46.877Z,59.65
2023-06-19T02:55:41.747Z,59.62
2023-06-19T02:56:36.917Z,59.56
2023-06-19T02:57:32.256Z,59.41
2023-06-19T02:58:27.404Z,59.79
2023-06-19T02:59:22.745Z,59.99
2023-06-19T03:00:17.891Z,60.04
2023-06-19T03:01:13.267Z,60.06
2023-06-19T03:02:08.490Z,59.97
2023-06-19T03:03:03.627Z,60.06
2023-06-19T03:03:58.735Z,60.21
2023-06-19T03:04:54.131Z,60.19
2023-06-19T03:05:49.214Z,60.31
2023-06-19T03:06:44.444Z,60.31
2023-06-19T03:07:39.656Z,60.40
2023-06-19T03:08:34.864Z,60.60
2023-06-19T03:09:30.284Z,60.83
2023-06-19T03:10:25.333Z,61.13
2023-06-19T03:11:20.506Z,61.26
2023-06-19T03:12:15.840Z,61.15
2023-06-19T03:13:10.940Z,61.12
2023-06-19T03:14:06.338Z,60.88
2023-06-19T03:15:01.330Z,60.73
2023-06-19T03:15:56.581Z,60.47
2023-06-19T03:16:51.869Z,60.29
2023-06-19T03:17:47.089Z,60.31
2023-06-19T03:18:42.271Z,60.27
2023-06-19T03:19:37.694Z,60.24
2023-06-19T03:20:32.740Z,60.29
2023-06-19T03:21:27.976Z,60.28
2023-06-19T03:22:23.397Z,60.39
2023-06-19T03:23:18.582Z,60.48
2023-06-19T03:24:14.096Z,60.66
2023-06-19T03:25:09.172Z,60.80
2023-06-19T03:26:04.502Z,60.72
2023-06-19T03:26:59.817Z,60.65
2023-06-19T03:27:55.202Z,60.54
2023-06-19T03:28:50.527Z,60.53
2023-06-19T03:29:46.032Z,60.58
2023-06-19T03:30:41.234Z,60.58
2023-06-19T03:31:36.424Z,60.61
2023-06-19T03:32:32.570Z,60.48
2023-06-19T03:33:27.074Z,60.22
2023-06-19T03:34:22.389Z,60.28
2023-06-19T03:35:17.481Z,60.15
2023-06-19T03:36:12.792Z,60.05
2023-06-19T03:37:08.123Z,60.06
2023-06-19T03:38:03.312Z,59.86
2023-06-19T03:38:58.846Z,60.00
2023-06-19T03:39:53.879Z,59.69
2023-06-19T03:40:49.241Z,59.72
2023-06-19T03:41:44.546Z,59.62
2023-06-19T03:42:40.017Z,59.51
2023-06-19T03:43:35.386Z,59.58
2023-06-19T03:44:30.611Z,59.47
2023-06-19T03:45:25.828Z,59.26
2023-06-19T03:46:21.226Z,59.36
2023-06-19T03:47:16.371Z,59.35
2023-06-19T03:48:11.755Z,59.39
2023-06-19T03:49:06.969Z,59.62
2023-06-19T03:50:18.918Z,59.45
2023-06-19T03:50:58.552Z,59.35
2023-06-19T03:51:52.828Z,59.34
2023-06-19T03:52:48.307Z,59.26
2023-06-19T03:53:43.705Z,59.13
2023-06-19T03:54:38.715Z,59.15
2023-06-19T03:55:34.227Z,58.83
2023-06-19T03:56:29.409Z,58.97
2023-06-19T03:57:24.797Z,58.95
2023-06-19T03:58:20.048Z,58.98
2023-06-19T03:59:15.625Z,58.81
2023-06-19T04:00:10.935Z,58.89
2023-06-19T04:01:06.150Z,58.86
2023-06-19T04:02:01.417Z,58.71
2023-06-19T04:02:57.015Z,58.83
2023-06-19T04:03:52.364Z,58.79
2023-06-19T04:04:47.488Z,58.79
2023-06-19T04:05:42.744Z,58.79
2023-06-19T04:06:38.191Z,58.83
2023-06-19T04:07:33.388Z,58.88
2023-06-19T04:08:28.986Z,58.94
2023-06-19T04:09:24.115Z,58.85
2023-06-19T04:10:19.567Z,58.88
2023-06-19T04:11:14.881Z,58.89
2023-06-19T04:12:10.343Z,58.87
2023-06-19T04:13:05.760Z,58.92
2023-06-19T04:14:01.315Z,58.85
2023-06-19T04:14:56.473Z,58.81
2023-06-19T04:15:51.860Z,58.83
2023-06-19T04:16:47.264Z,58.83
2023-06-19T04:17:42.632Z,58.81
2023-06-19T04:18:38.157Z,58.66
2023-06-19T04:19:33.292Z,58.83
2023-06-19T04:20:28.890Z,59.07
2023-06-19T04:21:24.053Z,59.06
2023-06-19T04:22:19.504Z,59.17
2023-06-19T04:23:15.112Z,59.13
2023-06-19T04:24:10.373Z,59.24
2023-06-19T04:25:05.560Z,59.59
2023-06-19T04:26:01.062Z,59.87
2023-06-19T04:26:56.372Z,60.03
2023-06-19T04:27:51.672Z,60.32
2023-06-19T04:28:47.020Z,60.42
2023-06-19T04:29:42.339Z,60.30
2023-06-19T04:30:37.614Z,60.15
2023-06-19T04:31:33.091Z,60.06
2023-06-19T04:32:28.445Z,59.88
2023-06-19T04:33:24.192Z,59.84
2023-06-19T04:34:19.248Z,59.77
2023-06-19T04:35:14.711Z,59.70
2023-06-19T04:36:10.022Z,59.57
2023-06-19T04:37:05.475Z,59.52
2023-06-19T04:38:00.774Z,59.62
2023-06-19T04:38:56.275Z,59.29
2023-06-19T04:39:51.426Z,59.27
2023-06-19T04:40:46.924Z,59.27
2023-06-19T04:41:42.244Z,59.15
2023-06-19T04:42:37.682Z,59.07
2023-06-19T04:43:33.289Z,59.19
2023-06-19T04:44:28.506Z,58.88
2023-06-19T04:45:23.647Z,58.90
2023-06-19T04:46:19.072Z,58.97
2023-06-19T04:47:14.419Z,59.37
2023-06-19T04:48:09.802Z,59.49
2023-06-19T04:49:05.092Z,59.58
2023-06-19T04:50:00.551Z,59.65
2023-06-19T04:50:55.846Z,59.44
2023-06-19T04:51:51.209Z,59.31
2023-06-19T04:52:46.659Z,58.96
2023-06-19T04:53:42.106Z,59.05
2023-06-19T04:54:37.416Z,59.34
2023-06-19T04:55:32.884Z,59.72
2023-06-19T04:56:28.173Z,60.21
2023-06-19T04:57:23.669Z,60.35
2023-06-19T04:58:18.993Z,61.01
2023-06-19T04:59:14.343Z,61.33
2023-06-19T05:00:09.631Z,61.74
2023-06-19T05:01:05.145Z,62.26
2023-06-19T05:02:00.480Z,62.72
2023-06-19T05:02:55.999Z,62.96
2023-06-19T05:03:51.277Z,62.78
2023-06-19T05:04:46.737Z,62.66
2023-06-19T05:05:41.994Z,62.99
2023-06-19T05:06:37.337Z,63.02
2023-06-19T05:07:32.685Z,62.92
2023-06-19T05:08:28.170Z,62.63
2023-06-19T05:09:23.345Z,62.58
2023-06-19T05:10:18.831Z,62.36
2023-06-19T05:11:14.132Z,62.50
2023-06-19T05:12:09.487Z,62.40
2023-06-19T05:13:04.827Z,62.19
2023-06-19T05:14:00.311Z,61.88
2023-06-19T05:14:56.320Z,61.97
2023-06-19T05:15:51.899Z,61.73
2023-06-19T05:16:47.323Z,61.71
2023-06-19T05:17:42.715Z,61.59
2023-06-19T05:18:38.189Z,61.67
2023-06-19T05:19:33.144Z,61.76
2023-06-19T05:20:28.181Z,61.72
2023-06-19T05:21:23.401Z,62.04
2023-06-19T05:22:18.486Z,62.09
2023-06-19T05:23:13.709Z,62.34
2023-06-19T05:24:08.654Z,62.03
2023-06-19T05:25:03.691Z,62.27
2023-06-19T05:25:58.618Z,61.73
2023-06-19T05:26:53.707Z,62.18
2023-06-19T05:27:49.054Z,61.79
2023-06-19T05:28:43.839Z,61.54
2023-06-19T05:29:38.890Z,61.68
2023-06-19T05:30:34.063Z,61.66
2023-06-19T05:31:29.111Z,61.15
2023-06-19T05:32:24.373Z,60.87
2023-06-19T05:33:19.259Z,61.25
2023-06-19T05:34:14.404Z,61.61
2023-06-19T05:35:09.444Z,61.11
2023-06-19T05:36:04.535Z,61.29
2023-06-19T05:36:59.539Z,60.44
2023-06-19T05:37:54.647Z,60.62
2023-06-19T05:38:49.827Z,60.30
2023-06-19T05:39:45.355Z,59.96
2023-06-19T05:40:40.693Z,59.69
2023-06-19T05:41:36.151Z,60.21
2023-06-19T05:42:31.644Z,60.18
2023-06-19T05:43:26.881Z,60.19
2023-06-19T05:44:22.176Z,60.21
2023-06-19T05:45:17.809Z,60.01
2023-06-19T05:46:13.101Z,59.61
2023-06-19T05:47:08.359Z,59.55
2023-06-19T05:48:03.884Z,59.20
2023-06-19T05:48:59.110Z,59.19
2023-06-19T05:49:54.397Z,59.11
2023-06-19T05:50:49.748Z,58.71
2023-06-19T05:51:45.174Z,58.58
2023-06-19T05:52:40.647Z,58.76
2023-06-19T05:53:35.968Z,58.75
2023-06-19T05:54:31.287Z,58.90
2023-06-19T05:55:26.401Z,59.40
2023-06-19T05:56:22.291Z,59.83
2023-06-19T05:57:16.411Z,60.10
2023-06-19T05:58:11.520Z,60.41
2023-06-19T05:59:06.531Z,60.92
2023-06-19T06:00:01.598Z,61.26
2023-06-19T06:00:56.741Z,61.53
2023-06-19T06:01:52.032Z,61.88
2023-06-19T06:02:47.188Z,62.15
2023-06-19T06:03:41.987Z,62.40
2023-06-19T06:04:37.074Z,62.35
2023-06-19T06:05:32.187Z,62.40
2023-06-19T06:06:27.222Z,62.60
2023-06-19T06:07:22.416Z,62.68
2023-06-19T06:08:19.881Z,63.04
2023-06-19T06:09:14.933Z,63.06
2023-06-19T06:10:10.114Z,63.34
2023-06-19T06:11:05.201Z,63.80
2023-06-19T06:12:00.215Z,64.07
2023-06-19T06:12:55.437Z,64.12
2023-06-19T06:13:50.470Z,64.13
2023-06-19T06:14:45.434Z,64.48
2023-06-19T06:15:40.504Z,64.53
2023-06-19T06:16:35.728Z,64.55
2023-06-19T06:17:30.968Z,64.55
2023-06-19T06:18:25.803Z,64.58
2023-06-19T06:19:20.861Z,64.55
2023-06-19T06:20:15.877Z,64.70
2023-06-19T06:21:10.911Z,64.64
2023-06-19T06:22:06.520Z,64.67
2023-06-19T06:23:01.713Z,64.63
2023-06-19T06:23:57.211Z,64.51
2023-06-19T06:24:52.638Z,64.48
2023-06-19T06:25:47.992Z,64.43
2023-06-19T06:26:43.414Z,64.34
2023-06-19T06:27:39.082Z,64.47
2023-06-19T06:28:34.270Z,64.89
2023-06-19T06:29:29.724Z,64.90
2023-06-19T06:30:25.325Z,64.85
2023-06-19T06:31:24.589Z,64.83
2023-06-19T06:32:20.074Z,64.68
2023-06-19T06:33:15.404Z,64.65
2023-06-19T06:34:10.612Z,64.45
2023-06-19T06:35:06.050Z,64.38
2023-06-19T06:36:01.398Z,64.27
2023-06-19T06:37:05.178Z,64.16
2023-06-19T06:37:53.300Z,63.71
2023-06-19T06:38:47.711Z,63.81
2023-06-19T06:39:43.034Z,63.72
2023-06-19T06:40:38.579Z,63.53
2023-06-19T06:41:34.260Z,63.36
2023-06-19T06:42:29.521Z,63.20
2023-06-19T06:43:24.858Z,63.20
2023-06-19T06:44:20.388Z,62.98
2023-06-19T06:45:15.447Z,62.99
2023-06-19T06:46:10.646Z,62.67
2023-06-19T06:47:05.919Z,62.52
2023-06-19T06:48:00.931Z,62.67
2023-06-19T06:48:55.932Z,62.60
2023-06-19T06:49:50.972Z,62.48
2023-06-19T06:50:46.043Z,62.55
2023-06-19T06:51:41.063Z,62.61
2023-06-19T06:52:38.062Z,62.53
2023-06-19T06:53:32.975Z,62.39
2023-06-19T06:54:27.983Z,62.00
2023-06-19T06:55:23.024Z,61.98
2023-06-19T06:56:18.011Z,61.85
2023-06-19T06:57:13.317Z,61.88
2023-06-19T06:58:08.104Z,61.84
2023-06-19T06:59:03.144Z,61.84
2023-06-19T06:59:58.595Z,61.93
2023-06-19T07:00:53.890Z,61.78
2023-06-19T07:01:50.608Z,61.76
2023-06-19T07:02:46.418Z,61.75
2023-06-19T07:03:41.740Z,61.38
2023-06-19T07:04:37.142Z,62.08
2023-06-19T07:05:32.532Z,62.35
2023-06-19T07:06:28.441Z,62.44
2023-06-19T07:07:24.053Z,62.31
2023-06-19T07:08:19.692Z,62.14
2023-06-19T07:09:14.816Z,61.97
2023-06-19T07:10:10.432Z,62.02
2023-06-19T07:11:06.041Z,61.83
2023-06-19T07:12:01.652Z,61.59
2023-06-19T07:12:56.828Z,61.48
2023-06-19T07:13:53.232Z,61.42
2023-06-19T07:14:48.694Z,61.46
2023-06-19T07:15:44.418Z,61.56
2023-06-19T07:16:39.722Z,61.54
2023-06-19T07:17:35.208Z,61.52
2023-06-19T07:18:30.789Z,61.39
2023-06-19T07:19:26.138Z,61.58
2023-06-19T07:20:21.999Z,61.78
2023-06-19T07:21:17.224Z,61.81
2023-06-19T07:22:12.834Z,61.60
2023-06-19T07:23:08.604Z,61.57
2023-06-19T07:24:04.145Z,61.36
2023-06-19T07:24:59.512Z,61.49
2023-06-19T07:25:56.094Z,61.56
2023-06-19T07:26:51.687Z,61.73
2023-06-19T07:27:47.224Z,61.81
2023-06-19T07:28:42.616Z,61.62
2023-06-19T07:29:37.991Z,61.69
2023-06-19T07:30:33.939Z,61.72
2023-06-19T07:31:29.312Z,61.70
2023-06-19T07:32:25.366Z,61.45
2023-06-19T07:33:20.589Z,61.56
2023-06-19T07:35:41.125Z,61.99
2023-06-19T07:36:34.797Z,61.94
2023-06-19T07:37:30.057Z,61.45
2023-06-19T07:38:25.446Z,60.96
2023-06-19T07:39:20.978Z,60.77
2023-06-19T07:40:16.451Z,60.72
2023-06-19T07:41:11.854Z,60.45
2023-06-19T07:42:07.274Z,60.57
2023-06-19T07:43:02.615Z,60.80
2023-06-19T07:43:57.990Z,60.92
2023-06-19T07:44:53.626Z,60.86
2023-06-19T07:45:49.029Z,60.92
2023-06-19T07:46:44.553Z,60.89
2023-06-19T07:47:39.809Z,61.02
2023-06-19T07:48:35.295Z,61.03
2023-06-19T07:49:30.787Z,61.01
2023-06-19T07:50:27.760Z,60.72
2023-06-19T07:51:21.855Z,60.68
2023-06-19T07:52:17.126Z,60.46
2023-06-19T07:53:12.586Z,60.38
2023-06-19T07:54:08.091Z,60.34
2023-06-19T07:55:03.278Z,60.86
2023-06-19T07:55:58.654Z,60.72
2023-06-19T07:56:54.200Z,60.66
2023-06-19T07:57:49.443Z,60.74
2023-06-19T07:58:44.792Z,60.63
2023-06-19T07:59:40.211Z,60.48
2023-06-19T08:00:35.567Z,60.23
2023-06-19T08:01:31.245Z,60.38
2023-06-19T08:02:26.626Z,60.36
2023-06-19T08:03:21.929Z,60.36
2023-06-19T08:04:17.273Z,60.23
2023-06-19T08:05:12.919Z,60.02
2023-06-19T08:06:08.080Z,60.00
2023-06-19T08:07:04.004Z,59.97
2023-06-19T08:07:58.975Z,59.72
2023-06-19T08:08:54.536Z,59.69
2023-06-19T08:09:57.004Z,59.97
2023-06-19T08:10:46.380Z,60.09
2023-06-19T08:11:40.843Z,60.09
2023-06-19T08:12:36.054Z,59.88
2023-06-19T08:13:31.528Z,59.58
2023-06-19T08:14:26.747Z,59.56
2023-06-19T08:15:22.088Z,59.35
2023-06-19T08:16:17.853Z,59.30
2023-06-19T08:17:13.228Z,59.01
2023-06-19T08:18:08.790Z,59.13
2023-06-19T08:19:04.291Z,58.88
2023-06-19T08:19:59.900Z,58.38
2023-06-19T08:20:55.239Z,58.06
2023-06-19T08:21:50.997Z,57.63
2023-06-19T08:22:46.191Z,57.46
2023-06-19T08:23:41.700Z,57.52
2023-06-19T08:24:37.049Z,57.55
2023-06-19T08:25:32.471Z,57.98
2023-06-19T08:26:28.011Z,57.81
2023-06-19T08:27:23.429Z,57.15
2023-06-19T08:28:18.681Z,57.11
2023-06-19T08:29:14.252Z,56.83
2023-06-19T08:30:09.831Z,56.63
2023-06-19T08:31:05.255Z,56.12
2023-06-19T08:32:00.603Z,55.46
2023-06-19T08:32:56.071Z,54.98
2023-06-19T08:33:54.517Z,55.29
2023-06-19T08:34:47.080Z,55.38
2023-06-19T08:35:42.446Z,55.27
2023-06-19T08:36:38.206Z,55.40
2023-06-19T08:37:33.547Z,55.29
2023-06-19T08:38:28.922Z,56.05
2023-06-19T08:39:25.032Z,56.62
2023-06-19T08:40:19.853Z,56.32
2023-06-19T08:41:15.024Z,56.29
2023-06-19T08:42:10.609Z,56.18
2023-06-19T08:43:06.023Z,56.63
2023-06-19T08:44:01.841Z,56.94
2023-06-19T08:44:57.137Z,56.74
2023-06-19T08:45:52.776Z,57.03
2023-06-19T08:46:47.979Z,56.63
2023-06-19T08:47:43.421Z,56.79
2023-06-19T08:48:38.781Z,56.54
2023-06-19T08:49:34.320Z,56.62
2023-06-19T08:50:29.907Z,57.12
2023-06-19T08:51:25.211Z,57.31
2023-06-19T08:52:20.516Z,57.29
2023-06-19T08:53:16.111Z,57.43
2023-06-19T08:54:11.500Z,56.48
2023-06-19T08:55:06.984Z,56.20
2023-06-19T08:56:02.483Z,56.29
2023-06-19T08:56:58.011Z,56.30
2023-06-19T08:57:53.451Z,56.27
2023-06-19T08:58:48.833Z,56.19
2023-06-19T08:59:44.253Z,55.70
2023-06-19T09:00:40.092Z,54.85
2023-06-19T09:01:35.307Z,54.20
2023-06-19T09:02:30.727Z,54.03
2023-06-19T09:03:26.283Z,53.98
2023-06-19T09:04:21.645Z,53.77
2023-06-19T09:05:17.186Z,54.06
2023-06-19T09:06:12.927Z,54.10
2023-06-19T09:07:07.939Z,53.83
2023-06-19T09:08:03.485Z,53.49
2023-06-19T09:08:58.907Z,52.65
2023-06-19T09:09:54.295Z,53.04
2023-06-19T09:10:49.852Z,53.17
2023-06-19T09:11:45.135Z,53.03
2023-06-19T09:12:40.638Z,52.30
2023-06-19T09:13:36.275Z,52.05
2023-06-19T09:14:31.494Z,52.22
2023-06-19T09:15:26.874Z,52.28
2023-06-19T09:16:22.513Z,52.73
2023-06-19T09:17:17.760Z,53.06
2023-06-19T09:18:13.120Z,52.53
2023-06-19T09:19:08.501Z,52.59
2023-06-19T09:20:03.967Z,52.40
2023-06-19T09:20:59.367Z,52.07
2023-06-19T09:21:54.857Z,51.63
2023-06-19T09:22:50.365Z,51.19
2023-06-19T09:23:46.042Z,50.39
2023-06-19T09:24:41.453Z,50.15
2023-06-19T09:25:36.880Z,49.92
2023-06-19T09:26:32.251Z,49.96
2023-06-19T09:27:27.737Z,49.68
2023-06-19T09:28:23.485Z,49.61
2023-06-19T09:29:21.336Z,49.86
2023-06-19T09:30:14.523Z,50.25
2023-06-19T09:31:10.010Z,49.99
2023-06-19T09:32:05.518Z,49.64
2023-06-19T09:33:01.183Z,49.67
2023-06-19T09:33:56.499Z,49.46
2023-06-19T09:34:51.747Z,49.48
2023-06-19T09:35:47.414Z,50.13
2023-06-19T09:36:42.748Z,50.00
2023-06-19T09:37:38.284Z,49.82
2023-06-19T09:38:33.860Z,49.90
2023-06-19T09:39:29.277Z,49.78
2023-06-19T09:40:25.052Z,49.66
2023-06-19T09:41:20.501Z,49.06
2023-06-19T09:42:15.551Z,48.53
2023-06-19T09:43:11.036Z,47.20
2023-06-19T09:44:06.494Z,47.20
2023-06-19T09:45:01.904Z,47.89
2023-06-19T09:45:57.574Z,47.98
2023-06-19T09:46:52.932Z,47.70
2023-06-19T09:47:50.523Z,47.70
2023-06-19T09:48:43.935Z,48.22
2023-06-19T09:49:39.378Z,48.76
2023-06-19T09:50:34.982Z,48.99
2023-06-19T09:51:30.327Z,48.68
2023-06-19T09:52:25.842Z,48.32
2023-06-19T09:53:21.443Z,48.03
2023-06-19T09:54:16.907Z,47.80
2023-06-19T09:55:12.423Z,47.47
2023-06-19T09:56:08.017Z,47.43
2023-06-19T09:57:03.634Z,47.33
2023-06-19T09:57:58.863Z,46.97
2023-06-19T09:58:54.269Z,47.64
2023-06-19T09:59:49.883Z,48.67
2023-06-19T10:00:45.110Z,48.27
2023-06-19T10:01:40.861Z,48.33
2023-06-19T10:02:36.247Z,47.93
2023-06-19T10:03:31.736Z,47.63
2023-06-19T10:04:27.076Z,47.27
2023-06-19T10:05:22.619Z,46.82
2023-06-19T10:06:18.230Z,46.94
2023-06-19T10:07:13.780Z,46.00
2023-06-19T10:08:09.265Z,45.80
2023-06-19T10:09:04.717Z,45.75
2023-06-19T10:10:00.204Z,46.00
2023-06-19T10:10:55.926Z,45.92
2023-06-19T10:11:51.221Z,45.63
2023-06-19T10:12:46.854Z,45.06
2023-06-19T10:13:42.375Z,44.71
2023-06-19T10:14:37.938Z,44.39
2023-06-19T10:15:33.368Z,45.10
2023-06-19T10:16:30.209Z,45.58
2023-06-19T10:17:24.259Z,45.95
2023-06-19T10:18:19.771Z,45.92
2023-06-19T10:19:15.090Z,45.17
2023-06-19T10:20:10.688Z,45.08
2023-06-19T10:21:06.410Z,44.65
2023-06-19T10:22:01.663Z,44.99
2023-06-19T10:22:57.065Z,44.97
2023-06-19T10:23:52.742Z,44.65
2023-06-19T10:24:48.246Z,44.88
2023-06-19T10:25:43.708Z,44.64
2023-06-19T10:26:39.469Z,45.01
2023-06-19T10:27:34.666Z,45.03
2023-06-19T10:28:30.150Z,44.81
2023-06-19T10:29:25.392Z,44.68
2023-06-19T10:30:21.071Z,44.78
2023-06-19T10:31:16.306Z,45.49
2023-06-19T10:32:11.736Z,45.41
2023-06-19T10:33:07.144Z,45.68
2023-06-19T10:34:02.626Z,45.21
2023-06-19T10:34:58.267Z,45.65
2023-06-19T10:35:53.695Z,45.90
2023-06-19T10:36:49.450Z,46.26
2023-06-19T10:37:44.615Z,46.47
2023-06-19T10:38:39.996Z,46.28
2023-06-19T10:39:35.473Z,46.25
2023-06-19T10:40:31.058Z,45.82
2023-06-19T10:41:26.561Z,45.28
2023-06-19T10:42:21.794Z,44.68
2023-06-19T10:43:17.364Z,44.76
2023-06-19T10:44:12.759Z,45.21
2023-06-19T10:45:08.361Z,45.24
2023-06-19T10:46:03.938Z,45.30
2023-06-19T10:46:59.174Z,45.48
2023-06-19T10:47:54.504Z,44.97
2023-06-19T10:48:50.094Z,44.71
2023-06-19T10:49:45.392Z,44.77
2023-06-19T10:50:41.025Z,44.85
2023-06-19T10:51:36.548Z,45.08
2023-06-19T10:52:31.965Z,44.42
2023-06-19T10:53:27.455Z,43.81
2023-06-19T10:54:22.909Z,43.97
2023-06-19T10:55:18.605Z,43.33
2023-06-19T10:56:13.929Z,43.69
2023-06-19T10:57:09.303Z,43.80
2023-06-19T10:58:04.876Z,42.84
2023-06-19T10:59:00.267Z,43.20
2023-06-19T10:59:55.706Z,44.11
2023-06-19T11:00:51.248Z,44.50
2023-06-19T11:01:46.694Z,44.54
2023-06-19T11:02:41.995Z,44.64
2023-06-19T11:03:37.525Z,44.74
2023-06-19T11:04:32.960Z,44.55
2023-06-19T11:05:28.648Z,44.32
2023-06-19T11:06:24.205Z,44.21
2023-06-19T11:07:19.812Z,43.53
2023-06-19T11:08:15.127Z,43.08
2023-06-19T11:09:10.664Z,43.02
2023-06-19T11:10:06.264Z,42.86
2023-06-19T11:11:01.932Z,42.40
2023-06-19T11:11:57.200Z,41.88
2023-06-19T11:12:52.714Z,41.76
2023-06-19T11:13:48.308Z,41.89
2023-06-19T11:14:43.909Z,41.19
2023-06-19T11:15:39.301Z,40.82
2023-06-19T11:16:34.982Z,41.04
2023-06-19T11:17:30.216Z,40.99
2023-06-19T11:18:25.654Z,40.18
2023-06-19T11:19:21.155Z,40.38
2023-06-19T11:20:16.757Z,40.50
2023-06-19T11:21:12.275Z,40.90
2023-06-19T11:22:07.624Z,40.62
2023-06-19T11:23:03.171Z,40.65
2023-06-19T11:23:58.568Z,40.24
2023-06-19T11:24:54.041Z,39.82
2023-06-19T11:25:49.617Z,39.39
2023-06-19T11:26:45.006Z,38.93
2023-06-19T11:27:40.537Z,38.40
2023-06-19T11:28:38.785Z,37.92
2023-06-19T11:29:31.617Z,37.64
2023-06-19T11:30:27.282Z,37.66
2023-06-19T11:31:22.675Z,36.75
2023-06-19T11:32:18.120Z,36.94
2023-06-19T11:33:13.632Z,36.90
2023-06-19T11:34:08.967Z,38.00
2023-06-19T11:35:04.479Z,38.39
2023-06-19T11:36:00.124Z,39.47
2023-06-19T11:36:55.449Z,39.62
2023-06-19T11:37:50.891Z,39.65
2023-06-19T11:38:46.667Z,39.70
2023-06-19T11:39:41.867Z,39.17
2023-06-19T11:40:37.537Z,39.32
2023-06-19T11:41:33.022Z,39.13
2023-06-19T11:42:28.669Z,39.14
2023-06-19T11:43:24.121Z,38.97
2023-06-19T11:44:19.777Z,38.90
2023-06-19T11:45:15.299Z,38.69
2023-06-19T11:46:10.959Z,38.31
2023-06-19T11:47:06.394Z,38.08
2023-06-19T11:48:01.776Z,37.60
2023-06-19T11:49:07.022Z,37.34
2023-06-19T11:49:53.833Z,37.27
2023-06-19T11:50:48.314Z,37.71
2023-06-19T11:51:43.810Z,38.12
2023-06-19T11:52:39.154Z,38.63
2023-06-19T11:53:34.670Z,38.84
2023-06-19T11:54:30.250Z,38.46
2023-06-19T11:55:25.585Z,37.91
2023-06-19T11:56:21.079Z,37.67